Aviation Digital Data Service (ADDS)

Output produced by METARs form (1345 UTC 23 January 2019)
found at http://www.aviationweather.gov/metar/data/
 
METAR text: RCNN 231330Z 36010KT 6000 FEW010 BKN050 15/10 Q1019 RMK A3011
Conditions at: RCNN (TAINAN TW-AFB , TW) observed 1330 UTC 23 January 2019
Temperature: 15.0°C (59°F)
Dewpoint: 10.0°C (50°F) [RH = 72%]
Pressure (altimeter): 30.09 inches Hg (1019.0 mb)
Winds: from the N (360 degrees) at 12 MPH (10 knots; 5.1 m/s)
Visibility: 4 miles ( 6 km)
Ceiling: 5000 feet AGL
Clouds: few clouds at 1000 feet AGL
broken clouds at 5000 feet AGL
Weather: no significant weather observed at this time

METAR text: RCNN 231300Z 02008KT 7000 FEW012 BKN050 16/11 Q1019 RMK A3011
Conditions at: RCNN (TAINAN TW-AFB , TW) observed 1300 UTC 23 January 2019
Temperature: 16.0°C (61°F)
Dewpoint: 11.0°C (52°F) [RH = 72%]
Pressure (altimeter): 30.09 inches Hg (1019.0 mb)
Winds: from the NNE (20 degrees) at 9 MPH (8 knots; 4.1 m/s)
Visibility: 4 miles ( 7 km)
Ceiling: 5000 feet AGL
Clouds: few clouds at 1200 feet AGL
broken clouds at 5000 feet AGL
Weather: no significant weather observed at this time

METAR text: RCNN 231230Z 01009KT 7000 FEW012 BKN050 16/11 Q1019 RMK A3010
Conditions at: RCNN (TAINAN TW-AFB , TW) observed 1230 UTC 23 January 2019
Temperature: 16.0°C (61°F)
Dewpoint: 11.0°C (52°F) [RH = 72%]
Pressure (altimeter): 30.09 inches Hg (1019.0 mb)
Winds: from the N (10 degrees) at 10 MPH (9 knots; 4.6 m/s)
Visibility: 4 miles ( 7 km)
Ceiling: 5000 feet AGL
Clouds: few clouds at 1200 feet AGL
broken clouds at 5000 feet AGL
Weather: no significant weather observed at this time

METAR text: RCNN 231200Z 36010KT 7000 FEW012 BKN050 16/10 Q1019 RMK A3010
Conditions at: RCNN (TAINAN TW-AFB , TW) observed 1200 UTC 23 January 2019
Temperature: 16.0°C (61°F)
Dewpoint: 10.0°C (50°F) [RH = 68%]
Pressure (altimeter): 30.09 inches Hg (1019.0 mb)
Winds: from the N (360 degrees) at 12 MPH (10 knots; 5.1 m/s)
Visibility: 4 miles ( 7 km)
Ceiling: 5000 feet AGL
Clouds: few clouds at 1200 feet AGL
broken clouds at 5000 feet AGL
Weather: no significant weather observed at this time

METAR text: RCNN 231130Z 01007KT 8000 FEW012 BKN050 17/10 Q1019 RMK A3010
Conditions at: RCNN (TAINAN TW-AFB , TW) observed 1130 UTC 23 January 2019
Temperature: 17.0°C (63°F)
Dewpoint: 10.0°C (50°F) [RH = 63%]
Pressure (altimeter): 30.09 inches Hg (1019.0 mb)
Winds: from the N (10 degrees) at 8 MPH (7 knots; 3.6 m/s)
Visibility: 5 miles ( 8 km)
Ceiling: 5000 feet AGL
Clouds: few clouds at 1200 feet AGL
broken clouds at 5000 feet AGL
Weather: no significant weather observed at this time

METAR text: RCNN 231100Z 36007KT 9000 FEW012 BKN050 17/11 Q1019 NOSIG RMK A3010
Conditions at: RCNN (TAINAN TW-AFB , TW) observed 1100 UTC 23 January 2019
Temperature: 17.0°C (63°F)
Dewpoint: 11.0°C (52°F) [RH = 68%]
Pressure (altimeter): 30.09 inches Hg (1019.0 mb)
Winds: from the N (360 degrees) at 8 MPH (7 knots; 3.6 m/s)
Visibility: 6 miles ( 9 km)
Ceiling: 5000 feet AGL
Clouds: few clouds at 1200 feet AGL
broken clouds at 5000 feet AGL
Weather: no significant weather observed at this time

METAR text: RCNN 231030Z 01008KT 9999 FEW012 BKN050 17/11 Q1018 NOSIG RMK A3008
Conditions at: RCNN (TAINAN TW-AFB , TW) observed 1030 UTC 23 January 2019
Temperature: 17.0°C (63°F)
Dewpoint: 11.0°C (52°F) [RH = 68%]
Pressure (altimeter): 30.06 inches Hg (1018.0 mb)
Winds: from the N (10 degrees) at 9 MPH (8 knots; 4.1 m/s)
Visibility: 6 or more miles (10+ km)
Ceiling: 5000 feet AGL
Clouds: few clouds at 1200 feet AGL
broken clouds at 5000 feet AGL
Weather: no significant weather observed at this time

METAR text: RCNN 231000Z 35010KT 9999 FEW012 BKN060 18/10 Q1018 NOSIG RMK A3007
Conditions at: RCNN (TAINAN TW-AFB , TW) observed 1000 UTC 23 January 2019
Temperature: 18.0°C (64°F)
Dewpoint: 10.0°C (50°F) [RH = 59%]
Pressure (altimeter): 30.06 inches Hg (1018.0 mb)
Winds: from the N (350 degrees) at 12 MPH (10 knots; 5.1 m/s)
Visibility: 6 or more miles (10+ km)
Ceiling: 6000 feet AGL
Clouds: few clouds at 1200 feet AGL
broken clouds at 6000 feet AGL
Weather: no significant weather observed at this time

METAR text: RCNN 230930Z 35009KT 9999 FEW012 BKN060 18/10 Q1018 NOSIG RMK A3007
Conditions at: RCNN (TAINAN TW-AFB , TW) observed 0930 UTC 23 January 2019
Temperature: 18.0°C (64°F)
Dewpoint: 10.0°C (50°F) [RH = 59%]
Pressure (altimeter): 30.06 inches Hg (1018.0 mb)
Winds: from the N (350 degrees) at 10 MPH (9 knots; 4.6 m/s)
Visibility: 6 or more miles (10+ km)
Ceiling: 6000 feet AGL
Clouds: few clouds at 1200 feet AGL
broken clouds at 6000 feet AGL
Weather: no significant weather observed at this time

METAR text: RCNN 230900Z 34008KT 9999 FEW012 BKN060 18/11 Q1017 NOSIG RMK A3006
Conditions at: RCNN (TAINAN TW-AFB , TW) observed 0900 UTC 23 January 2019
Temperature: 18.0°C (64°F)
Dewpoint: 11.0°C (52°F) [RH = 64%]
Pressure (altimeter): 30.03 inches Hg (1017.0 mb)
Winds: from the NNW (340 degrees) at 9 MPH (8 knots; 4.1 m/s)
Visibility: 6 or more miles (10+ km)
Ceiling: 6000 feet AGL
Clouds: few clouds at 1200 feet AGL
broken clouds at 6000 feet AGL
Weather: no significant weather observed at this time

METAR text: RCNN 230830Z 33008KT 9999 FEW012 BKN060 19/10 Q1017 NOSIG RMK A3006
Conditions at: RCNN (TAINAN TW-AFB , TW) observed 0830 UTC 23 January 2019
Temperature: 19.0°C (66°F)
Dewpoint: 10.0°C (50°F) [RH = 56%]
Pressure (altimeter): 30.03 inches Hg (1017.0 mb)
Winds: from the NNW (330 degrees) at 9 MPH (8 knots; 4.1 m/s)
Visibility: 6 or more miles (10+ km)
Ceiling: 6000 feet AGL
Clouds: few clouds at 1200 feet AGL
broken clouds at 6000 feet AGL
Weather: no significant weather observed at this time

METAR text: RCNN 230800Z 32008KT 9999 FEW012 BKN060 20/10 Q1017 NOSIG RMK A3004
Conditions at: RCNN (TAINAN TW-AFB , TW) observed 0800 UTC 23 January 2019
Temperature: 20.0°C (68°F)
Dewpoint: 10.0°C (50°F) [RH = 53%]
Pressure (altimeter): 30.03 inches Hg (1017.0 mb)
Winds: from the NW (320 degrees) at 9 MPH (8 knots; 4.1 m/s)
Visibility: 6 or more miles (10+ km)
Ceiling: 6000 feet AGL
Clouds: few clouds at 1200 feet AGL
broken clouds at 6000 feet AGL
Weather: no significant weather observed at this time

METAR text: RCNN 230730Z 35010KT 9999 FEW012 BKN060 21/09 Q1017 NOSIG RMK A3005
Conditions at: RCNN (TAINAN TW-AFB , TW) observed 0730 UTC 23 January 2019
Temperature: 21.0°C (70°F)
Dewpoint: 9.0°C (48°F) [RH = 46%]
Pressure (altimeter): 30.03 inches Hg (1017.0 mb)
Winds: from the N (350 degrees) at 12 MPH (10 knots; 5.1 m/s)
Visibility: 6 or more miles (10+ km)
Ceiling: 6000 feet AGL
Clouds: few clouds at 1200 feet AGL
broken clouds at 6000 feet AGL
Weather: no significant weather observed at this time

METAR text: RCNN 230700Z 34012KT 9999 FEW016 SCT060 21/09 Q1017 NOSIG RMK A3005
Conditions at: RCNN (TAINAN TW-AFB , TW) observed 0700 UTC 23 January 2019
Temperature: 21.0°C (70°F)
Dewpoint: 9.0°C (48°F) [RH = 46%]
Pressure (altimeter): 30.03 inches Hg (1017.0 mb)
Winds: from the NNW (340 degrees) at 14 MPH (12 knots; 6.2 m/s)
Visibility: 6 or more miles (10+ km)
Ceiling: at least 12,000 feet AGL
Clouds: few clouds at 1600 feet AGL
scattered clouds at 6000 feet AGL
Weather: no significant weather observed at this time

METAR text: RCNN 230630Z 34010KT 9999 FEW016 BKN060 21/09 Q1017 NOSIG RMK A3005
Conditions at: RCNN (TAINAN TW-AFB , TW) observed 0630 UTC 23 January 2019
Temperature: 21.0°C (70°F)
Dewpoint: 9.0°C (48°F) [RH = 46%]
Pressure (altimeter): 30.03 inches Hg (1017.0 mb)
Winds: from the NNW (340 degrees) at 12 MPH (10 knots; 5.1 m/s)
Visibility: 6 or more miles (10+ km)
Ceiling: 6000 feet AGL
Clouds: few clouds at 1600 feet AGL
broken clouds at 6000 feet AGL
Weather: no significant weather observed at this time

METAR text: RCNN 230600Z 33010KT 9999 FEW016 BKN060 21/09 Q1017 NOSIG RMK A3005
Conditions at: RCNN (TAINAN TW-AFB , TW) observed 0600 UTC 23 January 2019
Temperature: 21.0°C (70°F)
Dewpoint: 9.0°C (48°F) [RH = 46%]
Pressure (altimeter): 30.03 inches Hg (1017.0 mb)
Winds: from the NNW (330 degrees) at 12 MPH (10 knots; 5.1 m/s)
Visibility: 6 or more miles (10+ km)
Ceiling: 6000 feet AGL
Clouds: few clouds at 1600 feet AGL
broken clouds at 6000 feet AGL
Weather: no significant weather observed at this time

METAR text: RCNN 230500Z 34006KT 9999 FEW020 SCT060 22/08 Q1018 NOSIG RMK A3008
Conditions at: RCNN (TAINAN TW-AFB , TW) observed 0500 UTC 23 January 2019
Temperature: 22.0°C (72°F)
Dewpoint: 8.0°C (46°F) [RH = 41%]
Pressure (altimeter): 30.06 inches Hg (1018.0 mb)
Winds: from the NNW (340 degrees) at 7 MPH (6 knots; 3.1 m/s)
Visibility: 6 or more miles (10+ km)
Ceiling: at least 12,000 feet AGL
Clouds: few clouds at 2000 feet AGL
scattered clouds at 6000 feet AGL
Weather: no significant weather observed at this time

METAR text: RCNN 230430Z 33006KT 9999 FEW020 SCT060 21/08 Q1019 NOSIG RMK A3010
Conditions at: RCNN (TAINAN TW-AFB , TW) observed 0430 UTC 23 January 2019
Temperature: 21.0°C (70°F)
Dewpoint: 8.0°C (46°F) [RH = 43%]
Pressure (altimeter): 30.09 inches Hg (1019.0 mb)
Winds: from the NNW (330 degrees) at 7 MPH (6 knots; 3.1 m/s)
Visibility: 6 or more miles (10+ km)
Ceiling: at least 12,000 feet AGL
Clouds: few clouds at 2000 feet AGL
scattered clouds at 6000 feet AGL
Weather: no significant weather observed at this time

METAR text: RCNN 230400Z 35007KT 9999 FEW020 SCT060 21/09 Q1019 NOSIG RMK A3010
Conditions at: RCNN (TAINAN TW-AFB , TW) observed 0400 UTC 23 January 2019
Temperature: 21.0°C (70°F)
Dewpoint: 9.0°C (48°F) [RH = 46%]
Pressure (altimeter): 30.09 inches Hg (1019.0 mb)
Winds: from the N (350 degrees) at 8 MPH (7 knots; 3.6 m/s)
Visibility: 6 or more miles (10+ km)
Ceiling: at least 12,000 feet AGL
Clouds: few clouds at 2000 feet AGL
scattered clouds at 6000 feet AGL
Weather: no significant weather observed at this time

METAR text: RCNN 230330Z 34008KT 9999 FEW020 SCT060 20/09 Q1019 NOSIG RMK A3011
Conditions at: RCNN (TAINAN TW-AFB , TW) observed 0330 UTC 23 January 2019
Temperature: 20.0°C (68°F)
Dewpoint: 9.0°C (48°F) [RH = 49%]
Pressure (altimeter): 30.09 inches Hg (1019.0 mb)
Winds: from the NNW (340 degrees) at 9 MPH (8 knots; 4.1 m/s)
Visibility: 6 or more miles (10+ km)
Ceiling: at least 12,000 feet AGL
Clouds: few clouds at 2000 feet AGL
scattered clouds at 6000 feet AGL
Weather: no significant weather observed at this time

METAR text: RCNN 230300Z 34008KT 9999 FEW020 19/09 Q1019 NOSIG RMK A3011
Conditions at: RCNN (TAINAN TW-AFB , TW) observed 0300 UTC 23 January 2019
Temperature: 19.0°C (66°F)
Dewpoint: 9.0°C (48°F) [RH = 52%]
Pressure (altimeter): 30.09 inches Hg (1019.0 mb)
Winds: from the NNW (340 degrees) at 9 MPH (8 knots; 4.1 m/s)
Visibility: 6 or more miles (10+ km)
Ceiling: at least 12,000 feet AGL
Clouds: few clouds at 2000 feet AGL
Weather: no significant weather observed at this time

METAR text: RCNN 230230Z 35006KT 9999 FEW020 19/09 Q1020 NOSIG RMK A3013
Conditions at: RCNN (TAINAN TW-AFB , TW) observed 0230 UTC 23 January 2019
Temperature: 19.0°C (66°F)
Dewpoint: 9.0°C (48°F) [RH = 52%]
Pressure (altimeter): 30.12 inches Hg (1020.0 mb)
Winds: from the N (350 degrees) at 7 MPH (6 knots; 3.1 m/s)
Visibility: 6 or more miles (10+ km)
Ceiling: at least 12,000 feet AGL
Clouds: few clouds at 2000 feet AGL
Weather: no significant weather observed at this time

METAR text: RCNN 230200Z 36008KT 9999 FEW020 17/09 Q1020 NOSIG RMK A3014
Conditions at: RCNN (TAINAN TW-AFB , TW) observed 0200 UTC 23 January 2019
Temperature: 17.0°C (63°F)
Dewpoint: 9.0°C (48°F) [RH = 59%]
Pressure (altimeter): 30.12 inches Hg (1020.0 mb)
Winds: from the N (360 degrees) at 9 MPH (8 knots; 4.1 m/s)
Visibility: 6 or more miles (10+ km)
Ceiling: at least 12,000 feet AGL
Clouds: few clouds at 2000 feet AGL
Weather: no significant weather observed at this time

METAR text: RCNN 230130Z 01008KT 9999 FEW020 16/09 Q1020 NOSIG RMK A3014
Conditions at: RCNN (TAINAN TW-AFB , TW) observed 0130 UTC 23 January 2019
Temperature: 16.0°C (61°F)
Dewpoint: 9.0°C (48°F) [RH = 63%]
Pressure (altimeter): 30.12 inches Hg (1020.0 mb)
Winds: from the N (10 degrees) at 9 MPH (8 knots; 4.1 m/s)
Visibility: 6 or more miles (10+ km)
Ceiling: at least 12,000 feet AGL
Clouds: few clouds at 2000 feet AGL
Weather: no significant weather observed at this time

METAR text: RCNN 230100Z 02008KT 9999 FEW020 13/08 Q1020 NOSIG RMK A3013
Conditions at: RCNN (TAINAN TW-AFB , TW) observed 0100 UTC 23 January 2019
Temperature: 13.0°C (55°F)
Dewpoint: 8.0°C (46°F) [RH = 72%]
Pressure (altimeter): 30.12 inches Hg (1020.0 mb)
Winds: from the NNE (20 degrees) at 9 MPH (8 knots; 4.1 m/s)
Visibility: 6 or more miles (10+ km)
Ceiling: at least 12,000 feet AGL
Clouds: few clouds at 2000 feet AGL
Weather: no significant weather observed at this time

METAR text: RCNN 230030Z 02008KT 9999 FEW020 13/08 Q1020 NOSIG RMK A3013
Conditions at: RCNN (TAINAN TW-AFB , TW) observed 0030 UTC 23 January 2019
Temperature: 13.0°C (55°F)
Dewpoint: 8.0°C (46°F) [RH = 72%]
Pressure (altimeter): 30.12 inches Hg (1020.0 mb)
Winds: from the NNE (20 degrees) at 9 MPH (8 knots; 4.1 m/s)
Visibility: 6 or more miles (10+ km)
Ceiling: at least 12,000 feet AGL
Clouds: few clouds at 2000 feet AGL
Weather: no significant weather observed at this time

METAR text: RCNN 230000Z 01007KT 9999 FEW020 12/08 Q1019 NOSIG RMK A3011
Conditions at: RCNN (TAINAN TW-AFB , TW) observed 0000 UTC 23 January 2019
Temperature: 12.0°C (54°F)
Dewpoint: 8.0°C (46°F) [RH = 76%]
Pressure (altimeter): 30.09 inches Hg (1019.0 mb)
Winds: from the N (10 degrees) at 8 MPH (7 knots; 3.6 m/s)
Visibility: 6 or more miles (10+ km)
Ceiling: at least 12,000 feet AGL
Clouds: few clouds at 2000 feet AGL
Weather: no significant weather observed at this time

METAR text: RCNN 222330Z 36005KT 8000 FEW014 11/08 Q1019 NOSIG RMK A3010
Conditions at: RCNN (TAINAN TW-AFB , TW) observed 2330 UTC 22 January 2019
Temperature: 11.0°C (52°F)
Dewpoint: 8.0°C (46°F) [RH = 82%]
Pressure (altimeter): 30.09 inches Hg (1019.0 mb)
Winds: from the N (360 degrees) at 6 MPH (5 knots; 2.6 m/s)
Visibility: 5 miles ( 8 km)
Ceiling: at least 12,000 feet AGL
Clouds: few clouds at 1400 feet AGL
Weather: no significant weather observed at this time

METAR text: RCNN 222300Z 02007KT 8000 FEW014 10/07 Q1019 NOSIG RMK A3010
Conditions at: RCNN (TAINAN TW-AFB , TW) observed 2300 UTC 22 January 2019
Temperature: 10.0°C (50°F)
Dewpoint: 7.0°C (45°F) [RH = 82%]
Pressure (altimeter): 30.09 inches Hg (1019.0 mb)
Winds: from the NNE (20 degrees) at 8 MPH (7 knots; 3.6 m/s)
Visibility: 5 miles ( 8 km)
Ceiling: at least 12,000 feet AGL
Clouds: few clouds at 1400 feet AGL
Weather: no significant weather observed at this time

METAR text: RCNN 222230Z 01006KT 7000 FEW012 SCT080 10/07 Q1019 NOSIG RMK A3010
Conditions at: RCNN (TAINAN TW-AFB , TW) observed 2230 UTC 22 January 2019
Temperature: 10.0°C (50°F)
Dewpoint: 7.0°C (45°F) [RH = 82%]
Pressure (altimeter): 30.09 inches Hg (1019.0 mb)
Winds: from the N (10 degrees) at 7 MPH (6 knots; 3.1 m/s)
Visibility: 4 miles ( 7 km)
Ceiling: at least 12,000 feet AGL
Clouds: few clouds at 1200 feet AGL
scattered clouds at 8000 feet AGL
Weather: no significant weather observed at this time

METAR text: RCNN 222200Z 02005KT 7000 FEW012 SCT080 10/07 Q1018 NOSIG RMK A3009
Conditions at: RCNN (TAINAN TW-AFB , TW) observed 2200 UTC 22 January 2019
Temperature: 10.0°C (50°F)
Dewpoint: 7.0°C (45°F) [RH = 82%]
Pressure (altimeter): 30.06 inches Hg (1018.0 mb)
Winds: from the NNE (20 degrees) at 6 MPH (5 knots; 2.6 m/s)
Visibility: 4 miles ( 7 km)
Ceiling: at least 12,000 feet AGL
Clouds: few clouds at 1200 feet AGL
scattered clouds at 8000 feet AGL
Weather: no significant weather observed at this time

METAR text: RCNN 222130Z 03006KT 7000 FEW012 SCT080 10/07 Q1018 NOSIG RMK A3007
Conditions at: RCNN (TAINAN TW-AFB , TW) observed 2130 UTC 22 January 2019
Temperature: 10.0°C (50°F)
Dewpoint: 7.0°C (45°F) [RH = 82%]
Pressure (altimeter): 30.06 inches Hg (1018.0 mb)
Winds: from the NNE (30 degrees) at 7 MPH (6 knots; 3.1 m/s)
Visibility: 4 miles ( 7 km)
Ceiling: at least 12,000 feet AGL
Clouds: few clouds at 1200 feet AGL
scattered clouds at 8000 feet AGL
Weather: no significant weather observed at this time

METAR text: RCNN 222100Z 01010KT 7000 FEW012 SCT080 10/06 Q1018 NOSIG RMK A3007
Conditions at: RCNN (TAINAN TW-AFB , TW) observed 2100 UTC 22 January 2019
Temperature: 10.0°C (50°F)
Dewpoint: 6.0°C (43°F) [RH = 76%]
Pressure (altimeter): 30.06 inches Hg (1018.0 mb)
Winds: from the N (10 degrees) at 12 MPH (10 knots; 5.1 m/s)
Visibility: 4 miles ( 7 km)
Ceiling: at least 12,000 feet AGL
Clouds: few clouds at 1200 feet AGL
scattered clouds at 8000 feet AGL
Weather: no significant weather observed at this time

METAR text: RCNN 222030Z 35011KT 7000 FEW012 SCT080 10/06 Q1017 RMK A3006
Conditions at: RCNN (TAINAN TW-AFB , TW) observed 2030 UTC 22 January 2019
Temperature: 10.0°C (50°F)
Dewpoint: 6.0°C (43°F) [RH = 76%]
Pressure (altimeter): 30.03 inches Hg (1017.0 mb)
Winds: from the N (350 degrees) at 13 MPH (11 knots; 5.7 m/s)
Visibility: 4 miles ( 7 km)
Ceiling: at least 12,000 feet AGL
Clouds: few clouds at 1200 feet AGL
scattered clouds at 8000 feet AGL
Weather: no significant weather observed at this time

METAR text: RCNN 222000Z 02008KT 8000 FEW012 SCT080 10/06 Q1018 RMK A3007
Conditions at: RCNN (TAINAN TW-AFB , TW) observed 2000 UTC 22 January 2019
Temperature: 10.0°C (50°F)
Dewpoint: 6.0°C (43°F) [RH = 76%]
Pressure (altimeter): 30.06 inches Hg (1018.0 mb)
Winds: from the NNE (20 degrees) at 9 MPH (8 knots; 4.1 m/s)
Visibility: 5 miles ( 8 km)
Ceiling: at least 12,000 feet AGL
Clouds: few clouds at 1200 feet AGL
scattered clouds at 8000 feet AGL
Weather: no significant weather observed at this time

METAR text: RCNN 221930Z 01006KT 8000 FEW012 SCT080 10/06 Q1018 RMK A3007
Conditions at: RCNN (TAINAN TW-AFB , TW) observed 1930 UTC 22 January 2019
Temperature: 10.0°C (50°F)
Dewpoint: 6.0°C (43°F) [RH = 76%]
Pressure (altimeter): 30.06 inches Hg (1018.0 mb)
Winds: from the N (10 degrees) at 7 MPH (6 knots; 3.1 m/s)
Visibility: 5 miles ( 8 km)
Ceiling: at least 12,000 feet AGL
Clouds: few clouds at 1200 feet AGL
scattered clouds at 8000 feet AGL
Weather: no significant weather observed at this time

METAR text: RCNN 221900Z 02007KT 8000 FEW012 SCT060 11/06 Q1018 RMK A3007
Conditions at: RCNN (TAINAN TW-AFB , TW) observed 1900 UTC 22 January 2019
Temperature: 11.0°C (52°F)
Dewpoint: 6.0°C (43°F) [RH = 71%]
Pressure (altimeter): 30.06 inches Hg (1018.0 mb)
Winds: from the NNE (20 degrees) at 8 MPH (7 knots; 3.6 m/s)
Visibility: 5 miles ( 8 km)
Ceiling: at least 12,000 feet AGL
Clouds: few clouds at 1200 feet AGL
scattered clouds at 6000 feet AGL
Weather: no significant weather observed at this time

METAR text: RCNN 221830Z 03007KT 8000 FEW012 SCT060 12/07 Q1018 RMK A3007
Conditions at: RCNN (TAINAN TW-AFB , TW) observed 1830 UTC 22 January 2019
Temperature: 12.0°C (54°F)
Dewpoint: 7.0°C (45°F) [RH = 71%]
Pressure (altimeter): 30.06 inches Hg (1018.0 mb)
Winds: from the NNE (30 degrees) at 8 MPH (7 knots; 3.6 m/s)
Visibility: 5 miles ( 8 km)
Ceiling: at least 12,000 feet AGL
Clouds: few clouds at 1200 feet AGL
scattered clouds at 6000 feet AGL
Weather: no significant weather observed at this time

METAR text: RCNN 221800Z 01008KT 8000 FEW012 SCT060 12/07 Q1018 RMK A3008
Conditions at: RCNN (TAINAN TW-AFB , TW) observed 1800 UTC 22 January 2019
Temperature: 12.0°C (54°F)
Dewpoint: 7.0°C (45°F) [RH = 71%]
Pressure (altimeter): 30.06 inches Hg (1018.0 mb)
Winds: from the N (10 degrees) at 9 MPH (8 knots; 4.1 m/s)
Visibility: 5 miles ( 8 km)
Ceiling: at least 12,000 feet AGL
Clouds: few clouds at 1200 feet AGL
scattered clouds at 6000 feet AGL
Weather: no significant weather observed at this time

METAR text: RCNN 221730Z 02007KT 8000 FEW012 SCT060 12/07 Q1018 RMK A3009
Conditions at: RCNN (TAINAN TW-AFB , TW) observed 1730 UTC 22 January 2019
Temperature: 12.0°C (54°F)
Dewpoint: 7.0°C (45°F) [RH = 71%]
Pressure (altimeter): 30.06 inches Hg (1018.0 mb)
Winds: from the NNE (20 degrees) at 8 MPH (7 knots; 3.6 m/s)
Visibility: 5 miles ( 8 km)
Ceiling: at least 12,000 feet AGL
Clouds: few clouds at 1200 feet AGL
scattered clouds at 6000 feet AGL
Weather: no significant weather observed at this time

METAR text: RCNN 221700Z 01008KT 8000 FEW012 SCT060 12/08 Q1019 RMK A3010
Conditions at: RCNN (TAINAN TW-AFB , TW) observed 1700 UTC 22 January 2019
Temperature: 12.0°C (54°F)
Dewpoint: 8.0°C (46°F) [RH = 76%]
Pressure (altimeter): 30.09 inches Hg (1019.0 mb)
Winds: from the N (10 degrees) at 9 MPH (8 knots; 4.1 m/s)
Visibility: 5 miles ( 8 km)
Ceiling: at least 12,000 feet AGL
Clouds: few clouds at 1200 feet AGL
scattered clouds at 6000 feet AGL
Weather: no significant weather observed at this time

METAR text: RCNN 221630Z 02011KT 8000 FEW012 SCT060 12/08 Q1019 RMK A3010
Conditions at: RCNN (TAINAN TW-AFB , TW) observed 1630 UTC 22 January 2019
Temperature: 12.0°C (54°F)
Dewpoint: 8.0°C (46°F) [RH = 76%]
Pressure (altimeter): 30.09 inches Hg (1019.0 mb)
Winds: from the NNE (20 degrees) at 13 MPH (11 knots; 5.7 m/s)
Visibility: 5 miles ( 8 km)
Ceiling: at least 12,000 feet AGL
Clouds: few clouds at 1200 feet AGL
scattered clouds at 6000 feet AGL
Weather: no significant weather observed at this time

METAR text: RCNN 221600Z 36010KT 8000 FEW012 SCT060 12/08 Q1019 RMK A3010
Conditions at: RCNN (TAINAN TW-AFB , TW) observed 1600 UTC 22 January 2019
Temperature: 12.0°C (54°F)
Dewpoint: 8.0°C (46°F) [RH = 76%]
Pressure (altimeter): 30.09 inches Hg (1019.0 mb)
Winds: from the N (360 degrees) at 12 MPH (10 knots; 5.1 m/s)
Visibility: 5 miles ( 8 km)
Ceiling: at least 12,000 feet AGL
Clouds: few clouds at 1200 feet AGL
scattered clouds at 6000 feet AGL
Weather: no significant weather observed at this time

METAR text: RCNN 221530Z 01008KT 8000 FEW012 SCT060 12/08 Q1019 RMK A3011
Conditions at: RCNN (TAINAN TW-AFB , TW) observed 1530 UTC 22 January 2019
Temperature: 12.0°C (54°F)
Dewpoint: 8.0°C (46°F) [RH = 76%]
Pressure (altimeter): 30.09 inches Hg (1019.0 mb)
Winds: from the N (10 degrees) at 9 MPH (8 knots; 4.1 m/s)
Visibility: 5 miles ( 8 km)
Ceiling: at least 12,000 feet AGL
Clouds: few clouds at 1200 feet AGL
scattered clouds at 6000 feet AGL
Weather: no significant weather observed at this time

METAR text: RCNN 221500Z 02009KT 8000 FEW012 SCT060 12/08 Q1019 RMK A3011
Conditions at: RCNN (TAINAN TW-AFB , TW) observed 1500 UTC 22 January 2019
Temperature: 12.0°C (54°F)
Dewpoint: 8.0°C (46°F) [RH = 76%]
Pressure (altimeter): 30.09 inches Hg (1019.0 mb)
Winds: from the NNE (20 degrees) at 10 MPH (9 knots; 4.6 m/s)
Visibility: 5 miles ( 8 km)
Ceiling: at least 12,000 feet AGL
Clouds: few clouds at 1200 feet AGL
scattered clouds at 6000 feet AGL
Weather: no significant weather observed at this time

METAR text: RCNN 221430Z 01009KT 8000 FEW012 SCT060 13/08 Q1019 RMK A3011
Conditions at: RCNN (TAINAN TW-AFB , TW) observed 1430 UTC 22 January 2019
Temperature: 13.0°C (55°F)
Dewpoint: 8.0°C (46°F) [RH = 72%]
Pressure (altimeter): 30.09 inches Hg (1019.0 mb)
Winds: from the N (10 degrees) at 10 MPH (9 knots; 4.6 m/s)
Visibility: 5 miles ( 8 km)
Ceiling: at least 12,000 feet AGL
Clouds: few clouds at 1200 feet AGL
scattered clouds at 6000 feet AGL
Weather: no significant weather observed at this time

METAR text: RCNN 221400Z 02010KT 8000 FEW012 SCT060 13/08 Q1019 RMK A3011
Conditions at: RCNN (TAINAN TW-AFB , TW) observed 1400 UTC 22 January 2019
Temperature: 13.0°C (55°F)
Dewpoint: 8.0°C (46°F) [RH = 72%]
Pressure (altimeter): 30.09 inches Hg (1019.0 mb)
Winds: from the NNE (20 degrees) at 12 MPH (10 knots; 5.1 m/s)
Visibility: 5 miles ( 8 km)
Ceiling: at least 12,000 feet AGL
Clouds: few clouds at 1200 feet AGL
scattered clouds at 6000 feet AGL
Weather: no significant weather observed at this time

METAR text: RCNN 221330Z 01008KT 8000 FEW012 SCT100 13/08 Q1019 RMK A3011
Conditions at: RCNN (TAINAN TW-AFB , TW) observed 1330 UTC 22 January 2019
Temperature: 13.0°C (55°F)
Dewpoint: 8.0°C (46°F) [RH = 72%]
Pressure (altimeter): 30.09 inches Hg (1019.0 mb)
Winds: from the N (10 degrees) at 9 MPH (8 knots; 4.1 m/s)
Visibility: 5 miles ( 8 km)
Ceiling: at least 12,000 feet AGL
Clouds: few clouds at 1200 feet AGL
scattered clouds at 10000 feet AGL
Weather: no significant weather observed at this time

METAR text: RCNN 221300Z 02009KT 8000 FEW012 SCT100 14/08 Q1019 RMK A3011
Conditions at: RCNN (TAINAN TW-AFB , TW) observed 1300 UTC 22 January 2019
Temperature: 14.0°C (57°F)
Dewpoint: 8.0°C (46°F) [RH = 67%]
Pressure (altimeter): 30.09 inches Hg (1019.0 mb)
Winds: from the NNE (20 degrees) at 10 MPH (9 knots; 4.6 m/s)
Visibility: 5 miles ( 8 km)
Ceiling: at least 12,000 feet AGL
Clouds: few clouds at 1200 feet AGL
scattered clouds at 10000 feet AGL
Weather: no significant weather observed at this time

METAR text: RCNN 221230Z 01012KT 9000 FEW012 SCT100 14/08 Q1019 RMK A3010
Conditions at: RCNN (TAINAN TW-AFB , TW) observed 1230 UTC 22 January 2019
Temperature: 14.0°C (57°F)
Dewpoint: 8.0°C (46°F) [RH = 67%]
Pressure (altimeter): 30.09 inches Hg (1019.0 mb)
Winds: from the N (10 degrees) at 14 MPH (12 knots; 6.2 m/s)
Visibility: 6 miles ( 9 km)
Ceiling: at least 12,000 feet AGL
Clouds: few clouds at 1200 feet AGL
scattered clouds at 10000 feet AGL
Weather: no significant weather observed at this time

METAR text: RCNN 221200Z 35011KT 9000 FEW012 SCT100 14/08 Q1019 RMK A3010
Conditions at: RCNN (TAINAN TW-AFB , TW) observed 1200 UTC 22 January 2019
Temperature: 14.0°C (57°F)
Dewpoint: 8.0°C (46°F) [RH = 67%]
Pressure (altimeter): 30.09 inches Hg (1019.0 mb)
Winds: from the N (350 degrees) at 13 MPH (11 knots; 5.7 m/s)
Visibility: 6 miles ( 9 km)
Ceiling: at least 12,000 feet AGL
Clouds: few clouds at 1200 feet AGL
scattered clouds at 10000 feet AGL
Weather: no significant weather observed at this time

METAR text: RCNN 221130Z 36012KT 9000 FEW012 SCT100 14/08 Q1018 RMK A3009
Conditions at: RCNN (TAINAN TW-AFB , TW) observed 1130 UTC 22 January 2019
Temperature: 14.0°C (57°F)
Dewpoint: 8.0°C (46°F) [RH = 67%]
Pressure (altimeter): 30.06 inches Hg (1018.0 mb)
Winds: from the N (360 degrees) at 14 MPH (12 knots; 6.2 m/s)
Visibility: 6 miles ( 9 km)
Ceiling: at least 12,000 feet AGL
Clouds: few clouds at 1200 feet AGL
scattered clouds at 10000 feet AGL
Weather: no significant weather observed at this time

METAR text: RCNN 221100Z 01013KT 9000 FEW012 SCT100 15/08 Q1018 NOSIG RMK A3008
Conditions at: RCNN (TAINAN TW-AFB , TW) observed 1100 UTC 22 January 2019
Temperature: 15.0°C (59°F)
Dewpoint: 8.0°C (46°F) [RH = 63%]
Pressure (altimeter): 30.06 inches Hg (1018.0 mb)
Winds: from the N (10 degrees) at 15 MPH (13 knots; 6.7 m/s)
Visibility: 6 miles ( 9 km)
Ceiling: at least 12,000 feet AGL
Clouds: few clouds at 1200 feet AGL
scattered clouds at 10000 feet AGL
Weather: no significant weather observed at this time

METAR text: RCNN 221030Z 36010KT 9000 FEW012 SCT100 15/08 Q1018 NOSIG RMK A3008
Conditions at: RCNN (TAINAN TW-AFB , TW) observed 1030 UTC 22 January 2019
Temperature: 15.0°C (59°F)
Dewpoint: 8.0°C (46°F) [RH = 63%]
Pressure (altimeter): 30.06 inches Hg (1018.0 mb)
Winds: from the N (360 degrees) at 12 MPH (10 knots; 5.1 m/s)
Visibility: 6 miles ( 9 km)
Ceiling: at least 12,000 feet AGL
Clouds: few clouds at 1200 feet AGL
scattered clouds at 10000 feet AGL
Weather: no significant weather observed at this time

METAR text: RCNN 221000Z 01013KT 9999 FEW016 15/08 Q1018 NOSIG RMK A3007
Conditions at: RCNN (TAINAN TW-AFB , TW) observed 1000 UTC 22 January 2019
Temperature: 15.0°C (59°F)
Dewpoint: 8.0°C (46°F) [RH = 63%]
Pressure (altimeter): 30.06 inches Hg (1018.0 mb)
Winds: from the N (10 degrees) at 15 MPH (13 knots; 6.7 m/s)
Visibility: 6 or more miles (10+ km)
Ceiling: at least 12,000 feet AGL
Clouds: few clouds at 1600 feet AGL
Weather: no significant weather observed at this time

METAR text: RCNN 220930Z 02013KT 9999 FEW016 16/09 Q1018 NOSIG RMK A3007
Conditions at: RCNN (TAINAN TW-AFB , TW) observed 0930 UTC 22 January 2019
Temperature: 16.0°C (61°F)
Dewpoint: 9.0°C (48°F) [RH = 63%]
Pressure (altimeter): 30.06 inches Hg (1018.0 mb)
Winds: from the NNE (20 degrees) at 15 MPH (13 knots; 6.7 m/s)
Visibility: 6 or more miles (10+ km)
Ceiling: at least 12,000 feet AGL
Clouds: few clouds at 1600 feet AGL
Weather: no significant weather observed at this time

METAR text: RCNN 220900Z 01010G20KT 9999 FEW016 17/10 Q1017 NOSIG RMK A3006
Conditions at: RCNN (TAINAN TW-AFB , TW) observed 0900 UTC 22 January 2019
Temperature: 17.0°C (63°F)
Dewpoint: 10.0°C (50°F) [RH = 63%]
Pressure (altimeter): 30.03 inches Hg (1017.0 mb)
Winds: from the N (10 degrees) at 12 MPH (10 knots; 5.1 m/s)
gusting to 23 MPH (20 knots; 10.3 m/s)
Visibility: 6 or more miles (10+ km)
Ceiling: at least 12,000 feet AGL
Clouds: few clouds at 1600 feet AGL
Weather: no significant weather observed at this time

METAR text: RCNN 220830Z 02012G22KT 9999 FEW016 18/10 Q1017 NOSIG RMK A3005
Conditions at: RCNN (TAINAN TW-AFB , TW) observed 0830 UTC 22 January 2019
Temperature: 18.0°C (64°F)
Dewpoint: 10.0°C (50°F) [RH = 59%]
Pressure (altimeter): 30.03 inches Hg (1017.0 mb)
Winds: from the NNE (20 degrees) at 14 MPH (12 knots; 6.2 m/s)
gusting to 25 MPH (22 knots; 11.3 m/s)
Visibility: 6 or more miles (10+ km)
Ceiling: at least 12,000 feet AGL
Clouds: few clouds at 1600 feet AGL
Weather: no significant weather observed at this time

METAR text: RCNN 220800Z 36012G23KT 9999 FEW016 18/10 Q1017 NOSIG RMK A3005
Conditions at: RCNN (TAINAN TW-AFB , TW) observed 0800 UTC 22 January 2019
Temperature: 18.0°C (64°F)
Dewpoint: 10.0°C (50°F) [RH = 59%]
Pressure (altimeter): 30.03 inches Hg (1017.0 mb)
Winds: from the N (360 degrees) at 14 MPH (12 knots; 6.2 m/s)
gusting to 26 MPH (23 knots; 11.8 m/s)
Visibility: 6 or more miles (10+ km)
Ceiling: at least 12,000 feet AGL
Clouds: few clouds at 1600 feet AGL
Weather: no significant weather observed at this time

METAR text: RCNN 220730Z 34012G22KT 9999 FEW016 19/10 Q1017 NOSIG RMK A3005
Conditions at: RCNN (TAINAN TW-AFB , TW) observed 0730 UTC 22 January 2019
Temperature: 19.0°C (66°F)
Dewpoint: 10.0°C (50°F) [RH = 56%]
Pressure (altimeter): 30.03 inches Hg (1017.0 mb)
Winds: from the NNW (340 degrees) at 14 MPH (12 knots; 6.2 m/s)
gusting to 25 MPH (22 knots; 11.3 m/s)
Visibility: 6 or more miles (10+ km)
Ceiling: at least 12,000 feet AGL
Clouds: few clouds at 1600 feet AGL
Weather: no significant weather observed at this time

METAR text: RCNN 220700Z 36014KT 9999 FEW016 19/10 Q1017 NOSIG RMK A3005
Conditions at: RCNN (TAINAN TW-AFB , TW) observed 0700 UTC 22 January 2019
Temperature: 19.0°C (66°F)
Dewpoint: 10.0°C (50°F) [RH = 56%]
Pressure (altimeter): 30.03 inches Hg (1017.0 mb)
Winds: from the N (360 degrees) at 16 MPH (14 knots; 7.2 m/s)
Visibility: 6 or more miles (10+ km)
Ceiling: at least 12,000 feet AGL
Clouds: few clouds at 1600 feet AGL
Weather: no significant weather observed at this time

METAR text: RCNN 220630Z 36015KT 9999 FEW016 19/10 Q1017 NOSIG RMK A3005
Conditions at: RCNN (TAINAN TW-AFB , TW) observed 0630 UTC 22 January 2019
Temperature: 19.0°C (66°F)
Dewpoint: 10.0°C (50°F) [RH = 56%]
Pressure (altimeter): 30.03 inches Hg (1017.0 mb)
Winds: from the N (360 degrees) at 17 MPH (15 knots; 7.7 m/s)
Visibility: 6 or more miles (10+ km)
Ceiling: at least 12,000 feet AGL
Clouds: few clouds at 1600 feet AGL
Weather: no significant weather observed at this time

METAR text: RCNN 220600Z 34010G20KT 9999 FEW016 19/10 Q1018 NOSIG RMK A3007
Conditions at: RCNN (TAINAN TW-AFB , TW) observed 0600 UTC 22 January 2019
Temperature: 19.0°C (66°F)
Dewpoint: 10.0°C (50°F) [RH = 56%]
Pressure (altimeter): 30.06 inches Hg (1018.0 mb)
Winds: from the NNW (340 degrees) at 12 MPH (10 knots; 5.1 m/s)
gusting to 23 MPH (20 knots; 10.3 m/s)
Visibility: 6 or more miles (10+ km)
Ceiling: at least 12,000 feet AGL
Clouds: few clouds at 1600 feet AGL
Weather: no significant weather observed at this time

METAR text: RCNN 220530Z 35010G21KT 9999 FEW016 SCT060 19/10 Q1018 NOSIG RMK A3007
Conditions at: RCNN (TAINAN TW-AFB , TW) observed 0530 UTC 22 January 2019
Temperature: 19.0°C (66°F)
Dewpoint: 10.0°C (50°F) [RH = 56%]
Pressure (altimeter): 30.06 inches Hg (1018.0 mb)
Winds: from the N (350 degrees) at 12 MPH (10 knots; 5.1 m/s)
gusting to 24 MPH (21 knots; 10.8 m/s)
Visibility: 6 or more miles (10+ km)
Ceiling: at least 12,000 feet AGL
Clouds: few clouds at 1600 feet AGL
scattered clouds at 6000 feet AGL
Weather: no significant weather observed at this time

METAR text: RCNN 220500Z 36010G20KT 9999 FEW012 SCT030 BKN060 19/10 Q1018 NOSIG RMK A3008
Conditions at: RCNN (TAINAN TW-AFB , TW) observed 0500 UTC 22 January 2019
Temperature: 19.0°C (66°F)
Dewpoint: 10.0°C (50°F) [RH = 56%]
Pressure (altimeter): 30.06 inches Hg (1018.0 mb)
Winds: from the N (360 degrees) at 12 MPH (10 knots; 5.1 m/s)
gusting to 23 MPH (20 knots; 10.3 m/s)
Visibility: 6 or more miles (10+ km)
Ceiling: 6000 feet AGL
Clouds: few clouds at 1200 feet AGL
scattered clouds at 3000 feet AGL
broken clouds at 6000 feet AGL
Weather: no significant weather observed at this time

METAR text: RCNN 220430Z 01012G22KT 9999 FEW012 SCT025 BKN050 18/10 Q1019 NOSIG RMK A3010
Conditions at: RCNN (TAINAN TW-AFB , TW) observed 0430 UTC 22 January 2019
Temperature: 18.0°C (64°F)
Dewpoint: 10.0°C (50°F) [RH = 59%]
Pressure (altimeter): 30.09 inches Hg (1019.0 mb)
Winds: from the N (10 degrees) at 14 MPH (12 knots; 6.2 m/s)
gusting to 25 MPH (22 knots; 11.3 m/s)
Visibility: 6 or more miles (10+ km)
Ceiling: 5000 feet AGL
Clouds: few clouds at 1200 feet AGL
scattered clouds at 2500 feet AGL
broken clouds at 5000 feet AGL
Weather: no significant weather observed at this time

METAR text: RCNN 220400Z 36012G22KT 9999 FEW016 BKN050 18/10 Q1019 NOSIG RMK A3011
Conditions at: RCNN (TAINAN TW-AFB , TW) observed 0400 UTC 22 January 2019
Temperature: 18.0°C (64°F)
Dewpoint: 10.0°C (50°F) [RH = 59%]
Pressure (altimeter): 30.09 inches Hg (1019.0 mb)
Winds: from the N (360 degrees) at 14 MPH (12 knots; 6.2 m/s)
gusting to 25 MPH (22 knots; 11.3 m/s)
Visibility: 6 or more miles (10+ km)
Ceiling: 5000 feet AGL
Clouds: few clouds at 1600 feet AGL
broken clouds at 5000 feet AGL
Weather: no significant weather observed at this time

METAR text: RCNN 220330Z 35011G21KT 9999 FEW016 BKN050 18/11 Q1020 NOSIG RMK A3013
Conditions at: RCNN (TAINAN TW-AFB , TW) observed 0330 UTC 22 January 2019
Temperature: 18.0°C (64°F)
Dewpoint: 11.0°C (52°F) [RH = 64%]
Pressure (altimeter): 30.12 inches Hg (1020.0 mb)
Winds: from the N (350 degrees) at 13 MPH (11 knots; 5.7 m/s)
gusting to 24 MPH (21 knots; 10.8 m/s)
Visibility: 6 or more miles (10+ km)
Ceiling: 5000 feet AGL
Clouds: few clouds at 1600 feet AGL
broken clouds at 5000 feet AGL
Weather: no significant weather observed at this time

METAR text: RCNN 220300Z 02012KT 9999 FEW016 BKN050 19/11 Q1020 NOSIG RMK A3014
Conditions at: RCNN (TAINAN TW-AFB , TW) observed 0300 UTC 22 January 2019
Temperature: 19.0°C (66°F)
Dewpoint: 11.0°C (52°F) [RH = 60%]
Pressure (altimeter): 30.12 inches Hg (1020.0 mb)
Winds: from the NNE (20 degrees) at 14 MPH (12 knots; 6.2 m/s)
Visibility: 6 or more miles (10+ km)
Ceiling: 5000 feet AGL
Clouds: few clouds at 1600 feet AGL
broken clouds at 5000 feet AGL
Weather: no significant weather observed at this time

METAR text: RCNN 220230Z 36015KT 9999 FEW016 SCT050 19/12 Q1020 NOSIG RMK A3014
Conditions at: RCNN (TAINAN TW-AFB , TW) observed 0230 UTC 22 January 2019
Temperature: 19.0°C (66°F)
Dewpoint: 12.0°C (54°F) [RH = 64%]
Pressure (altimeter): 30.12 inches Hg (1020.0 mb)
Winds: from the N (360 degrees) at 17 MPH (15 knots; 7.7 m/s)
Visibility: 6 or more miles (10+ km)
Ceiling: at least 12,000 feet AGL
Clouds: few clouds at 1600 feet AGL
scattered clouds at 5000 feet AGL
Weather: no significant weather observed at this time

METAR text: RCNN 220200Z 02003KT 9999 FEW018 18/11 Q1020 NOSIG RMK A3014
Conditions at: RCNN (TAINAN TW-AFB , TW) observed 0200 UTC 22 January 2019
Temperature: 18.0°C (64°F)
Dewpoint: 11.0°C (52°F) [RH = 64%]
Pressure (altimeter): 30.12 inches Hg (1020.0 mb)
Winds: from the NNE (20 degrees) at 3 MPH (3 knots; 1.5 m/s)
Visibility: 6 or more miles (10+ km)
Ceiling: at least 12,000 feet AGL
Clouds: few clouds at 1800 feet AGL
Weather: no significant weather observed at this time

Forecast for: RCNN (TAINAN TW-AFB , TW)
Text: TAF RCNN 231100Z 2312/2412 36012KT 9999 FEW012 SCT060 TX19/2406Z TN11/2320Z
Forecast period: 1200 to 2000 UTC 23 January 2019
Forecast type: FROM: standard forecast or significant change
Winds: from the N (360 degrees) at 14 MPH (12 knots; 6.2 m/s)
Visibility: 6 or more miles 10+ km)
Ceiling: at least 12,000 feet AGL
Clouds: few clouds at 1200 feet AGL
scattered clouds at 6000 feet AGL
Weather: no significant weather forecast for this period
Text: BECMG 2320/2323 36004KT 7000
Forecast period: 2000 UTC 23 January 2019 to 0000 UTC 24 January 2019
Forecast type: BECOMING: Conditions expected to become as follows by 2300 UTC 23 January 2019
Winds: from the N (360 degrees) at 5 MPH (4 knots; 2.1 m/s)
Visibility: 4 miles (7 km)
Ceiling: at least 12,000 feet AGL
Clouds: few clouds at 1200 feet AGL
scattered clouds at 6000 feet AGL
Weather: no significant weather forecast for this period
Text: BECMG 2400/2403 36010KT 9999
Forecast period: 0000 to 1200 UTC 24 January 2019
Forecast type: BECOMING: Conditions expected to become as follows by 0300 UTC 24 January 2019
Winds: from the N (360 degrees) at 12 MPH (10 knots; 5.1 m/s)
Visibility: 6 or more miles 10+ km)
Ceiling: at least 12,000 feet AGL
Clouds: few clouds at 1200 feet AGL
scattered clouds at 6000 feet AGL
Weather: no significant weather forecast for this period